METAR Amsterdam:2021/01/26 21:25 EHAM 262125Z 20009KT CAVOK 04/02 Q1015 NOSIG

Menu promotie
· Vliegkampen


Inloggen voor leden
WelkomAnonymous!

Lid nummer    
Wachtwoord 
[Wachtwoord vergeten?]


Picasa foto link
ACV externe fotolink


 
 
copyright (c) ACV 2006 - 2020

All logos and trademarks in this site are property of their respective owner. The comments are property of their posters, all the rest � 2005 by me.
PHP-Nuke Copyright © 2005 by Francisco Burzi. This is free software, and you may redistribute it under the GPL. PHP-Nuke comes with absolutely no warranty, for details, see the license.
Pagina Rendering: 0.45 Seconden